sensor_id;sensor_type;location;lat;lon;timestamp;P1;durP1;ratioP1;P2;durP2;ratioP2
48925;SDS011;39838;59.938;30.642;2023-07-22T00:01:10;4.05;;;1.60;;
48925;SDS011;39838;59.938;30.642;2023-07-22T00:03:37;7.75;;;1.95;;
48925;SDS011;39838;59.938;30.642;2023-07-22T00:06:05;4.05;;;1.88;;
48925;SDS011;39838;59.938;30.642;2023-07-22T00:08:34;6.35;;;1.73;;
48925;SDS011;39838;59.938;30.642;2023-07-22T00:11:02;5.63;;;1.63;;
48925;SDS011;39838;59.938;30.642;2023-07-22T00:13:29;3.45;;;1.65;;
48925;SDS011;39838;59.938;30.642;2023-07-22T00:15:58;5.53;;;1.88;;
48925;SDS011;39838;59.938;30.642;2023-07-22T00:18:25;5.95;;;2.00;;
48925;SDS011;39838;59.938;30.642;2023-07-22T00:20:53;5.15;;;1.80;;
48925;SDS011;39838;59.938;30.642;2023-07-22T00:23:21;3.08;;;1.55;;
48925;SDS011;39838;59.938;30.642;2023-07-22T00:25:50;3.75;;;1.80;;
48925;SDS011;39838;59.938;30.642;2023-07-22T00:28:17;3.67;;;1.70;;
48925;SDS011;39838;59.938;30.642;2023-07-22T00:30:45;4.18;;;1.85;;
48925;SDS011;39838;59.938;30.642;2023-07-22T00:33:15;3.95;;;2.05;;
48925;SDS011;39838;59.938;30.642;2023-07-22T00:35:42;4.32;;;2.10;;
48925;SDS011;39838;59.938;30.642;2023-07-22T00:38:09;7.85;;;2.13;;
48925;SDS011;39838;59.938;30.642;2023-07-22T00:40:36;8.77;;;2.28;;
48925;SDS011;39838;59.938;30.642;2023-07-22T00:43:05;5.60;;;2.00;;
48925;SDS011;39838;59.938;30.642;2023-07-22T00:45:33;3.80;;;2.00;;
48925;SDS011;39838;59.938;30.642;2023-07-22T00:48:00;3.72;;;1.90;;
48925;SDS011;39838;59.938;30.642;2023-07-22T00:50:27;3.45;;;1.73;;
48925;SDS011;39838;59.938;30.642;2023-07-22T00:52:54;4.05;;;1.95;;
48925;SDS011;39838;59.938;30.642;2023-07-22T00:55:21;3.90;;;2.22;;
48925;SDS011;39838;59.938;30.642;2023-07-22T00:57:49;9.20;;;2.10;;
48925;SDS011;39838;59.938;30.642;2023-07-22T01:00:18;5.90;;;2.45;;
48925;SDS011;39838;59.938;30.642;2023-07-22T01:02:45;6.38;;;2.20;;
48925;SDS011;39838;59.938;30.642;2023-07-22T01:05:13;4.93;;;2.00;;
48925;SDS011;39838;59.938;30.642;2023-07-22T01:07:40;9.27;;;2.97;;
48925;SDS011;39838;59.938;30.642;2023-07-22T01:10:09;7.90;;;2.20;;
48925;SDS011;39838;59.938;30.642;2023-07-22T01:12:36;5.32;;;2.25;;
48925;SDS011;39838;59.938;30.642;2023-07-22T01:15:05;7.72;;;2.05;;
48925;SDS011;39838;59.938;30.642;2023-07-22T01:17:35;4.03;;;2.00;;
48925;SDS011;39838;59.938;30.642;2023-07-22T01:20:04;8.02;;;2.28;;
48925;SDS011;39838;59.938;30.642;2023-07-22T01:22:32;9.48;;;2.28;;
48925;SDS011;39838;59.938;30.642;2023-07-22T01:25:02;3.85;;;2.00;;
48925;SDS011;39838;59.938;30.642;2023-07-22T01:27:31;7.60;;;2.40;;
48925;SDS011;39838;59.938;30.642;2023-07-22T01:29:59;5.88;;;2.40;;
48925;SDS011;39838;59.938;30.642;2023-07-22T01:32:33;6.65;;;2.30;;
48925;SDS011;39838;59.938;30.642;2023-07-22T01:35:00;5.97;;;2.25;;
48925;SDS011;39838;59.938;30.642;2023-07-22T01:37:31;3.97;;;2.30;;
48925;SDS011;39838;59.938;30.642;2023-07-22T01:39:59;4.18;;;2.35;;
48925;SDS011;39838;59.938;30.642;2023-07-22T01:42:31;6.20;;;2.33;;
48925;SDS011;39838;59.938;30.642;2023-07-22T01:44:58;7.30;;;2.40;;
48925;SDS011;39838;59.938;30.642;2023-07-22T01:47:25;5.88;;;2.35;;
48925;SDS011;39838;59.938;30.642;2023-07-22T01:49:53;5.38;;;2.28;;
48925;SDS011;39838;59.938;30.642;2023-07-22T01:52:20;3.97;;;2.40;;
48925;SDS011;39838;59.938;30.642;2023-07-22T01:54:47;5.90;;;2.78;;
48925;SDS011;39838;59.938;30.642;2023-07-22T01:57:14;5.70;;;2.33;;
48925;SDS011;39838;59.938;30.642;2023-07-22T01:59:43;5.13;;;2.60;;
48925;SDS011;39838;59.938;30.642;2023-07-22T02:02:10;6.50;;;2.60;;
48925;SDS011;39838;59.938;30.642;2023-07-22T02:04:37;5.18;;;2.55;;
48925;SDS011;39838;59.938;30.642;2023-07-22T02:07:05;5.50;;;2.60;;
48925;SDS011;39838;59.938;30.642;2023-07-22T02:09:32;5.10;;;2.80;;
48925;SDS011;39838;59.938;30.642;2023-07-22T02:11:59;6.03;;;2.80;;
48925;SDS011;39838;59.938;30.642;2023-07-22T02:14:26;4.93;;;3.03;;
48925;SDS011;39838;59.938;30.642;2023-07-22T02:16:56;5.85;;;2.95;;
48925;SDS011;39838;59.938;30.642;2023-07-22T02:19:23;6.10;;;3.00;;
48925;SDS011;39838;59.938;30.642;2023-07-22T02:21:50;5.35;;;3.25;;
48925;SDS011;39838;59.938;30.642;2023-07-22T02:24:17;6.22;;;3.30;;
48925;SDS011;39838;59.938;30.642;2023-07-22T02:26:45;6.38;;;3.20;;
48925;SDS011;39838;59.938;30.642;2023-07-22T02:29:12;7.50;;;3.75;;
48925;SDS011;39838;59.938;30.642;2023-07-22T02:31:39;7.93;;;3.97;;
48925;SDS011;39838;59.938;30.642;2023-07-22T02:34:07;6.68;;;3.22;;
48925;SDS011;39838;59.938;30.642;2023-07-22T02:36:35;5.95;;;3.17;;
48925;SDS011;39838;59.938;30.642;2023-07-22T02:39:02;8.73;;;3.38;;
48925;SDS011;39838;59.938;30.642;2023-07-22T02:41:29;8.93;;;3.20;;
48925;SDS011;39838;59.938;30.642;2023-07-22T02:43:56;8.70;;;3.20;;
48925;SDS011;39838;59.938;30.642;2023-07-22T02:46:24;8.02;;;3.72;;
48925;SDS011;39838;59.938;30.642;2023-07-22T02:48:51;7.25;;;3.03;;
48925;SDS011;39838;59.938;30.642;2023-07-22T02:51:21;7.03;;;3.20;;
48925;SDS011;39838;59.938;30.642;2023-07-22T02:53:49;6.38;;;3.40;;
48925;SDS011;39838;59.938;30.642;2023-07-22T02:56:16;8.43;;;3.50;;
48925;SDS011;39838;59.938;30.642;2023-07-22T02:58:43;8.00;;;3.40;;
48925;SDS011;39838;59.938;30.642;2023-07-22T03:01:10;5.60;;;3.05;;
48925;SDS011;39838;59.938;30.642;2023-07-22T03:03:38;5.32;;;3.20;;
48925;SDS011;39838;59.938;30.642;2023-07-22T03:06:06;8.00;;;3.17;;
48925;SDS011;39838;59.938;30.642;2023-07-22T03:08:36;5.72;;;2.90;;
48925;SDS011;39838;59.938;30.642;2023-07-22T03:11:03;7.55;;;3.55;;
48925;SDS011;39838;59.938;30.642;2023-07-22T03:13:30;5.72;;;3.15;;
48925;SDS011;39838;59.938;30.642;2023-07-22T03:15:59;7.80;;;3.15;;
48925;SDS011;39838;59.938;30.642;2023-07-22T03:18:29;7.32;;;3.10;;
48925;SDS011;39838;59.938;30.642;2023-07-22T03:20:57;8.63;;;2.90;;
48925;SDS011;39838;59.938;30.642;2023-07-22T03:23:24;6.57;;;3.40;;
48925;SDS011;39838;59.938;30.642;2023-07-22T03:25:52;5.95;;;3.10;;
48925;SDS011;39838;59.938;30.642;2023-07-22T03:28:20;5.53;;;3.00;;
48925;SDS011;39838;59.938;30.642;2023-07-22T03:30:47;5.75;;;3.00;;
48925;SDS011;39838;59.938;30.642;2023-07-22T03:33:14;8.73;;;3.30;;
48925;SDS011;39838;59.938;30.642;2023-07-22T03:35:42;5.43;;;3.03;;
48925;SDS011;39838;59.938;30.642;2023-07-22T03:38:09;8.48;;;3.13;;
48925;SDS011;39838;59.938;30.642;2023-07-22T03:40:36;4.18;;;3.00;;
48925;SDS011;39838;59.938;30.642;2023-07-22T03:43:05;7.38;;;3.40;;
48925;SDS011;39838;59.938;30.642;2023-07-22T03:45:32;6.03;;;3.30;;
48925;SDS011;39838;59.938;30.642;2023-07-22T03:48:00;7.03;;;3.40;;
48925;SDS011;39838;59.938;30.642;2023-07-22T03:50:27;7.22;;;3.10;;
48925;SDS011;39838;59.938;30.642;2023-07-22T03:52:54;7.20;;;3.40;;
48925;SDS011;39838;59.938;30.642;2023-07-22T03:55:22;7.82;;;3.30;;
48925;SDS011;39838;59.938;30.642;2023-07-22T03:57:49;6.72;;;2.92;;
48925;SDS011;39838;59.938;30.642;2023-07-22T04:00:17;7.45;;;3.22;;
48925;SDS011;39838;59.938;30.642;2023-07-22T04:02:47;6.45;;;3.17;;
48925;SDS011;39838;59.938;30.642;2023-07-22T04:05:15;9.60;;;3.10;;
48925;SDS011;39838;59.938;30.642;2023-07-22T04:07:43;7.43;;;3.05;;
48925;SDS011;39838;59.938;30.642;2023-07-22T04:10:11;6.85;;;2.88;;
48925;SDS011;39838;59.938;30.642;2023-07-22T04:12:38;6.95;;;3.30;;
48925;SDS011;39838;59.938;30.642;2023-07-22T04:15:05;5.65;;;2.80;;
48925;SDS011;39838;59.938;30.642;2023-07-22T04:17:35;5.65;;;3.10;;
48925;SDS011;39838;59.938;30.642;2023-07-22T04:20:02;5.88;;;2.80;;
48925;SDS011;39838;59.938;30.642;2023-07-22T04:22:31;7.80;;;3.08;;
48925;SDS011;39838;59.938;30.642;2023-07-22T04:24:59;5.57;;;2.70;;
48925;SDS011;39838;59.938;30.642;2023-07-22T04:27:27;5.07;;;2.65;;
48925;SDS011;39838;59.938;30.642;2023-07-22T04:29:54;4.90;;;2.88;;
48925;SDS011;39838;59.938;30.642;2023-07-22T04:32:21;5.82;;;2.92;;
48925;SDS011;39838;59.938;30.642;2023-07-22T04:34:50;4.90;;;2.58;;
48925;SDS011;39838;59.938;30.642;2023-07-22T04:37:18;7.20;;;3.03;;
48925;SDS011;39838;59.938;30.642;2023-07-22T04:39:47;4.60;;;2.60;;
48925;SDS011;39838;59.938;30.642;2023-07-22T04:42:15;4.97;;;2.80;;
48925;SDS011;39838;59.938;30.642;2023-07-22T04:44:43;7.80;;;2.80;;
48925;SDS011;39838;59.938;30.642;2023-07-22T04:47:10;6.25;;;3.05;;
48925;SDS011;39838;59.938;30.642;2023-07-22T04:49:38;5.18;;;2.67;;
48925;SDS011;39838;59.938;30.642;2023-07-22T04:52:07;6.05;;;2.83;;
48925;SDS011;39838;59.938;30.642;2023-07-22T04:54:35;7.07;;;3.08;;
48925;SDS011;39838;59.938;30.642;2023-07-22T04:57:02;5.63;;;2.80;;
48925;SDS011;39838;59.938;30.642;2023-07-22T04:59:29;7.82;;;3.58;;
48925;SDS011;39838;59.938;30.642;2023-07-22T05:01:56;5.82;;;2.95;;
48925;SDS011;39838;59.938;30.642;2023-07-22T05:04:24;7.10;;;2.90;;
48925;SDS011;39838;59.938;30.642;2023-07-22T05:06:51;4.38;;;2.80;;
48925;SDS011;39838;59.938;30.642;2023-07-22T05:09:19;6.70;;;2.85;;
48925;SDS011;39838;59.938;30.642;2023-07-22T05:11:46;4.63;;;2.80;;
48925;SDS011;39838;59.938;30.642;2023-07-22T05:14:14;5.28;;;2.58;;
48925;SDS011;39838;59.938;30.642;2023-07-22T05:16:41;8.70;;;3.17;;
48925;SDS011;39838;59.938;30.642;2023-07-22T05:19:08;6.95;;;2.80;;
48925;SDS011;39838;59.938;30.642;2023-07-22T05:21:35;6.93;;;2.90;;
48925;SDS011;39838;59.938;30.642;2023-07-22T05:24:02;6.53;;;2.80;;
48925;SDS011;39838;59.938;30.642;2023-07-22T05:26:31;7.18;;;3.15;;
48925;SDS011;39838;59.938;30.642;2023-07-22T05:28:58;5.90;;;2.90;;
48925;SDS011;39838;59.938;30.642;2023-07-22T05:31:25;10.15;;;3.10;;
48925;SDS011;39838;59.938;30.642;2023-07-22T05:33:55;5.38;;;3.13;;
48925;SDS011;39838;59.938;30.642;2023-07-22T05:36:22;5.93;;;3.25;;
48925;SDS011;39838;59.938;30.642;2023-07-22T05:38:49;6.82;;;2.80;;
48925;SDS011;39838;59.938;30.642;2023-07-22T05:41:17;7.85;;;2.83;;
48925;SDS011;39838;59.938;30.642;2023-07-22T05:43:46;6.15;;;2.80;;
48925;SDS011;39838;59.938;30.642;2023-07-22T05:46:13;8.65;;;2.80;;
48925;SDS011;39838;59.938;30.642;2023-07-22T05:48:40;7.35;;;2.92;;
48925;SDS011;39838;59.938;30.642;2023-07-22T05:51:07;9.57;;;2.90;;
48925;SDS011;39838;59.938;30.642;2023-07-22T05:53:35;11.65;;;3.00;;
48925;SDS011;39838;59.938;30.642;2023-07-22T05:56:02;9.50;;;3.10;;
48925;SDS011;39838;59.938;30.642;2023-07-22T05:58:29;4.60;;;2.80;;
48925;SDS011;39838;59.938;30.642;2023-07-22T06:00:58;6.30;;;2.70;;
48925;SDS011;39838;59.938;30.642;2023-07-22T06:03:25;6.55;;;3.05;;
48925;SDS011;39838;59.938;30.642;2023-07-22T06:05:53;14.00;;;3.15;;
48925;SDS011;39838;59.938;30.642;2023-07-22T06:08:21;7.95;;;2.60;;
48925;SDS011;39838;59.938;30.642;2023-07-22T06:10:48;7.10;;;2.88;;
48925;SDS011;39838;59.938;30.642;2023-07-22T06:13:15;7.97;;;2.42;;
48925;SDS011;39838;59.938;30.642;2023-07-22T06:15:42;5.00;;;2.55;;
48925;SDS011;39838;59.938;30.642;2023-07-22T06:18:11;8.15;;;2.70;;
48925;SDS011;39838;59.938;30.642;2023-07-22T06:20:38;5.97;;;2.83;;
48925;SDS011;39838;59.938;30.642;2023-07-22T06:23:05;7.28;;;2.70;;
48925;SDS011;39838;59.938;30.642;2023-07-22T06:25:33;4.80;;;2.60;;
48925;SDS011;39838;59.938;30.642;2023-07-22T06:28:00;6.50;;;2.30;;
48925;SDS011;39838;59.938;30.642;2023-07-22T06:30:27;11.45;;;2.80;;
48925;SDS011;39838;59.938;30.642;2023-07-22T06:32:54;8.73;;;2.60;;
48925;SDS011;39838;59.938;30.642;2023-07-22T06:35:23;7.03;;;2.22;;
48925;SDS011;39838;59.938;30.642;2023-07-22T06:37:50;7.68;;;2.35;;
48925;SDS011;39838;59.938;30.642;2023-07-22T06:40:17;6.00;;;2.20;;
48925;SDS011;39838;59.938;30.642;2023-07-22T06:42:45;7.00;;;2.42;;
48925;SDS011;39838;59.938;30.642;2023-07-22T06:45:12;4.82;;;2.25;;
48925;SDS011;39838;59.938;30.642;2023-07-22T06:47:39;6.90;;;2.65;;
48925;SDS011;39838;59.938;30.642;2023-07-22T06:50:06;6.32;;;2.70;;
48925;SDS011;39838;59.938;30.642;2023-07-22T06:52:35;9.30;;;2.70;;
48925;SDS011;39838;59.938;30.642;2023-07-22T06:55:02;7.10;;;2.40;;
48925;SDS011;39838;59.938;30.642;2023-07-22T06:57:32;5.75;;;2.45;;
48925;SDS011;39838;59.938;30.642;2023-07-22T07:00:00;7.07;;;2.20;;
48925;SDS011;39838;59.938;30.642;2023-07-22T07:02:34;8.10;;;2.38;;
48925;SDS011;39838;59.938;30.642;2023-07-22T07:05:01;9.75;;;2.47;;
48925;SDS011;39838;59.938;30.642;2023-07-22T07:07:32;7.30;;;2.45;;
48925;SDS011;39838;59.938;30.642;2023-07-22T07:10:01;5.55;;;2.60;;
48925;SDS011;39838;59.938;30.642;2023-07-22T07:12:31;6.28;;;2.28;;
48925;SDS011;39838;59.938;30.642;2023-07-22T07:14:59;11.88;;;2.70;;
48925;SDS011;39838;59.938;30.642;2023-07-22T07:17:27;7.30;;;2.40;;
48925;SDS011;39838;59.938;30.642;2023-07-22T07:19:54;9.05;;;2.60;;
48925;SDS011;39838;59.938;30.642;2023-07-22T07:22:21;7.00;;;2.45;;
48925;SDS011;39838;59.938;30.642;2023-07-22T07:24:48;4.72;;;2.72;;
48925;SDS011;39838;59.938;30.642;2023-07-22T07:27:17;7.53;;;2.30;;
48925;SDS011;39838;59.938;30.642;2023-07-22T07:29:44;7.65;;;2.65;;
48925;SDS011;39838;59.938;30.642;2023-07-22T07:32:11;12.70;;;2.58;;
48925;SDS011;39838;59.938;30.642;2023-07-22T07:34:38;12.23;;;2.42;;
48925;SDS011;39838;59.938;30.642;2023-07-22T07:37:06;9.55;;;2.25;;
48925;SDS011;39838;59.938;30.642;2023-07-22T07:39:33;8.98;;;2.90;;
48925;SDS011;39838;59.938;30.642;2023-07-22T07:42:00;8.18;;;2.50;;
48925;SDS011;39838;59.938;30.642;2023-07-22T07:44:29;7.10;;;2.47;;
48925;SDS011;39838;59.938;30.642;2023-07-22T07:46:56;4.72;;;2.33;;
48925;SDS011;39838;59.938;30.642;2023-07-22T07:49:23;10.48;;;2.40;;
48925;SDS011;39838;59.938;30.642;2023-07-22T07:51:50;5.43;;;2.47;;
48925;SDS011;39838;59.938;30.642;2023-07-22T07:54:17;6.43;;;2.15;;
48925;SDS011;39838;59.938;30.642;2023-07-22T07:56:45;6.85;;;2.40;;
48925;SDS011;39838;59.938;30.642;2023-07-22T07:59:12;5.65;;;2.45;;
48925;SDS011;39838;59.938;30.642;2023-07-22T08:01:40;8.23;;;2.75;;
48925;SDS011;39838;59.938;30.642;2023-07-22T08:04:08;13.75;;;2.50;;
48925;SDS011;39838;59.938;30.642;2023-07-22T08:06:35;10.20;;;2.40;;
48925;SDS011;39838;59.938;30.642;2023-07-22T08:09:03;7.63;;;2.13;;
48925;SDS011;39838;59.938;30.642;2023-07-22T08:11:31;6.55;;;2.40;;
48925;SDS011;39838;59.938;30.642;2023-07-22T08:13:58;4.82;;;1.83;;
48925;SDS011;39838;59.938;30.642;2023-07-22T08:16:27;9.00;;;2.50;;
48925;SDS011;39838;59.938;30.642;2023-07-22T08:18:56;9.10;;;2.42;;
48925;SDS011;39838;59.938;30.642;2023-07-22T08:21:23;6.20;;;2.00;;
48925;SDS011;39838;59.938;30.642;2023-07-22T08:23:50;5.20;;;2.03;;
48925;SDS011;39838;59.938;30.642;2023-07-22T08:26:17;11.05;;;1.70;;
48925;SDS011;39838;59.938;30.642;2023-07-22T08:28:47;6.97;;;1.98;;
48925;SDS011;39838;59.938;30.642;2023-07-22T08:31:14;9.45;;;2.28;;
48925;SDS011;39838;59.938;30.642;2023-07-22T08:33:41;13.57;;;2.10;;
48925;SDS011;39838;59.938;30.642;2023-07-22T08:36:10;7.68;;;2.05;;
48925;SDS011;39838;59.938;30.642;2023-07-22T08:38:37;4.60;;;1.80;;
48925;SDS011;39838;59.938;30.642;2023-07-22T08:41:05;4.53;;;2.17;;
48925;SDS011;39838;59.938;30.642;2023-07-22T08:43:32;5.45;;;2.20;;
48925;SDS011;39838;59.938;30.642;2023-07-22T08:46:05;5.05;;;2.55;;
48925;SDS011;39838;59.938;30.642;2023-07-22T08:48:33;7.15;;;2.58;;
48925;SDS011;39838;59.938;30.642;2023-07-22T08:51:04;6.05;;;2.40;;
48925;SDS011;39838;59.938;30.642;2023-07-22T08:53:34;6.60;;;2.63;;
48925;SDS011;39838;59.938;30.642;2023-07-22T08:56:02;6.15;;;2.53;;
48925;SDS011;39838;59.938;30.642;2023-07-22T08:58:30;7.53;;;2.60;;
48925;SDS011;39838;59.938;30.642;2023-07-22T09:00:59;5.07;;;2.60;;
48925;SDS011;39838;59.938;30.642;2023-07-22T09:03:27;6.93;;;2.70;;
48925;SDS011;39838;59.938;30.642;2023-07-22T09:05:54;4.15;;;2.33;;
48925;SDS011;39838;59.938;30.642;2023-07-22T09:08:22;7.82;;;2.63;;
48925;SDS011;39838;59.938;30.642;2023-07-22T09:10:51;7.78;;;2.78;;
48925;SDS011;39838;59.938;30.642;2023-07-22T09:13:18;9.70;;;2.92;;
48925;SDS011;39838;59.938;30.642;2023-07-22T09:15:46;6.43;;;2.17;;
48925;SDS011;39838;59.938;30.642;2023-07-22T09:18:14;6.55;;;2.33;;
48925;SDS011;39838;59.938;30.642;2023-07-22T09:20:41;6.68;;;2.55;;
48925;SDS011;39838;59.938;30.642;2023-07-22T09:23:09;8.25;;;2.35;;
48925;SDS011;39838;59.938;30.642;2023-07-22T09:25:36;9.02;;;2.50;;
48925;SDS011;39838;59.938;30.642;2023-07-22T09:28:05;5.55;;;2.05;;
48925;SDS011;39838;59.938;30.642;2023-07-22T09:30:34;5.35;;;2.25;;
48925;SDS011;39838;59.938;30.642;2023-07-22T09:33:04;6.55;;;1.77;;
48925;SDS011;39838;59.938;30.642;2023-07-22T09:35:43;6.47;;;1.95;;
48925;SDS011;39838;59.938;30.642;2023-07-22T09:38:11;6.68;;;1.80;;
48925;SDS011;39838;59.938;30.642;2023-07-22T09:40:41;4.13;;;1.50;;
48925;SDS011;39838;59.938;30.642;2023-07-22T09:43:10;6.18;;;1.80;;
48925;SDS011;39838;59.938;30.642;2023-07-22T09:45:38;5.40;;;1.80;;
48925;SDS011;39838;59.938;30.642;2023-07-22T09:48:06;7.68;;;2.40;;
48925;SDS011;39838;59.938;30.642;2023-07-22T09:50:36;5.15;;;2.10;;
48925;SDS011;39838;59.938;30.642;2023-07-22T09:53:03;4.93;;;2.35;;
48925;SDS011;39838;59.938;30.642;2023-07-22T09:55:31;5.28;;;2.17;;
48925;SDS011;39838;59.938;30.642;2023-07-22T09:58:00;4.70;;;1.98;;
48925;SDS011;39838;59.938;30.642;2023-07-22T10:00:30;7.10;;;2.60;;
48925;SDS011;39838;59.938;30.642;2023-07-22T10:02:59;6.28;;;2.40;;
48925;SDS011;39838;59.938;30.642;2023-07-22T10:05:30;5.60;;;2.30;;
48925;SDS011;39838;59.938;30.642;2023-07-22T10:08:01;4.15;;;1.92;;
48925;SDS011;39838;59.938;30.642;2023-07-22T10:10:30;5.93;;;1.90;;
48925;SDS011;39838;59.938;30.642;2023-07-22T10:12:59;9.32;;;2.10;;
48925;SDS011;39838;59.938;30.642;2023-07-22T10:15:28;6.07;;;2.17;;
48925;SDS011;39838;59.938;30.642;2023-07-22T10:18:00;5.47;;;1.90;;
48925;SDS011;39838;59.938;30.642;2023-07-22T10:20:28;3.50;;;2.10;;
48925;SDS011;39838;59.938;30.642;2023-07-22T10:23:00;4.63;;;1.92;;
48925;SDS011;39838;59.938;30.642;2023-07-22T10:25:27;8.32;;;2.13;;
48925;SDS011;39838;59.938;30.642;2023-07-22T10:27:55;10.20;;;2.72;;
48925;SDS011;39838;59.938;30.642;2023-07-22T10:30:22;3.78;;;1.80;;
48925;SDS011;39838;59.938;30.642;2023-07-22T10:32:51;6.53;;;1.77;;
48925;SDS011;39838;59.938;30.642;2023-07-22T10:35:21;6.97;;;2.00;;
48925;SDS011;39838;59.938;30.642;2023-07-22T10:38:06;9.20;;;2.30;;
48925;SDS011;39838;59.938;30.642;2023-07-22T10:40:44;3.80;;;2.17;;
48925;SDS011;39838;59.938;30.642;2023-07-22T10:43:12;7.65;;;2.33;;
48925;SDS011;39838;59.938;30.642;2023-07-22T10:45:43;7.03;;;2.50;;
48925;SDS011;39838;59.938;30.642;2023-07-22T10:48:17;4.90;;;2.10;;
48925;SDS011;39838;59.938;30.642;2023-07-22T10:50:45;5.13;;;2.33;;
48925;SDS011;39838;59.938;30.642;2023-07-22T10:53:20;6.07;;;2.28;;
48925;SDS011;39838;59.938;30.642;2023-07-22T10:58:57;6.00;;;2.10;;
48925;SDS011;39838;59.938;30.642;2023-07-22T11:01:35;3.25;;;2.00;;
48925;SDS011;39838;59.938;30.642;2023-07-22T11:04:07;4.55;;;1.88;;
48925;SDS011;39838;59.938;30.642;2023-07-22T11:06:51;5.43;;;1.85;;
48925;SDS011;39838;59.938;30.642;2023-07-22T11:09:33;6.25;;;2.00;;
48925;SDS011;39838;59.938;30.642;2023-07-22T11:12:02;11.15;;;2.40;;
48925;SDS011;39838;59.938;30.642;2023-07-22T11:14:31;3.28;;;1.73;;
48925;SDS011;39838;59.938;30.642;2023-07-22T11:17:00;3.63;;;1.85;;
48925;SDS011;39838;59.938;30.642;2023-07-22T11:19:31;9.85;;;2.20;;
48925;SDS011;39838;59.938;30.642;2023-07-22T11:21:59;7.10;;;2.00;;
48925;SDS011;39838;59.938;30.642;2023-07-22T11:24:27;7.45;;;2.03;;
48925;SDS011;39838;59.938;30.642;2023-07-22T11:26:54;3.47;;;1.95;;
48925;SDS011;39838;59.938;30.642;2023-07-22T11:29:21;7.00;;;2.15;;
48925;SDS011;39838;59.938;30.642;2023-07-22T11:31:49;5.97;;;2.22;;
48925;SDS011;39838;59.938;30.642;2023-07-22T11:34:18;3.05;;;2.03;;
48925;SDS011;39838;59.938;30.642;2023-07-22T11:36:48;9.50;;;2.33;;
48925;SDS011;39838;59.938;30.642;2023-07-22T11:39:20;5.15;;;2.25;;
48925;SDS011;39838;59.938;30.642;2023-07-22T11:41:48;9.98;;;2.50;;
48925;SDS011;39838;59.938;30.642;2023-07-22T11:44:17;3.75;;;2.10;;
48925;SDS011;39838;59.938;30.642;2023-07-22T11:46:51;5.72;;;2.25;;
48925;SDS011;39838;59.938;30.642;2023-07-22T11:49:27;5.78;;;2.33;;
48925;SDS011;39838;59.938;30.642;2023-07-22T11:51:57;8.13;;;2.40;;
48925;SDS011;39838;59.938;30.642;2023-07-22T11:54:26;11.32;;;2.15;;
48925;SDS011;39838;59.938;30.642;2023-07-22T11:56:54;4.13;;;2.10;;
48925;SDS011;39838;59.938;30.642;2023-07-22T11:59:35;6.72;;;2.40;;
48925;SDS011;39838;59.938;30.642;2023-07-22T12:02:04;6.63;;;2.20;;
48925;SDS011;39838;59.938;30.642;2023-07-22T12:04:32;5.53;;;2.25;;
48925;SDS011;39838;59.938;30.642;2023-07-22T12:07:02;4.97;;;2.05;;
48925;SDS011;39838;59.938;30.642;2023-07-22T12:09:30;10.48;;;2.13;;
48925;SDS011;39838;59.938;30.642;2023-07-22T12:11:58;7.78;;;2.08;;
48925;SDS011;39838;59.938;30.642;2023-07-22T12:14:32;3.67;;;1.95;;
48925;SDS011;39838;59.938;30.642;2023-07-22T12:17:01;5.20;;;1.92;;
48925;SDS011;39838;59.938;30.642;2023-07-22T12:19:28;6.55;;;2.15;;
48925;SDS011;39838;59.938;30.642;2023-07-22T12:21:56;6.55;;;2.45;;
48925;SDS011;39838;59.938;30.642;2023-07-22T12:24:25;6.25;;;2.03;;
48925;SDS011;39838;59.938;30.642;2023-07-22T12:26:53;5.68;;;1.88;;
48925;SDS011;39838;59.938;30.642;2023-07-22T12:29:20;5.75;;;1.90;;
48925;SDS011;39838;59.938;30.642;2023-07-22T12:31:48;9.82;;;2.03;;
48925;SDS011;39838;59.938;30.642;2023-07-22T12:34:15;7.18;;;1.70;;
48925;SDS011;39838;59.938;30.642;2023-07-22T12:36:42;8.15;;;2.08;;
48925;SDS011;39838;59.938;30.642;2023-07-22T12:39:10;6.03;;;2.00;;
48925;SDS011;39838;59.938;30.642;2023-07-22T12:41:38;6.20;;;1.70;;
48925;SDS011;39838;59.938;30.642;2023-07-22T12:44:05;6.50;;;1.98;;
48925;SDS011;39838;59.938;30.642;2023-07-22T12:46:32;3.05;;;1.88;;
48925;SDS011;39838;59.938;30.642;2023-07-22T12:49:00;5.10;;;1.80;;
48925;SDS011;39838;59.938;30.642;2023-07-22T12:51:27;4.10;;;1.95;;
48925;SDS011;39838;59.938;30.642;2023-07-22T12:53:54;5.32;;;2.00;;
48925;SDS011;39838;59.938;30.642;2023-07-22T12:56:21;3.83;;;1.75;;
48925;SDS011;39838;59.938;30.642;2023-07-22T12:58:50;4.88;;;1.83;;
48925;SDS011;39838;59.938;30.642;2023-07-22T13:01:17;3.70;;;1.83;;
48925;SDS011;39838;59.938;30.642;2023-07-22T13:03:44;7.47;;;1.98;;
48925;SDS011;39838;59.938;30.642;2023-07-22T13:06:11;6.35;;;1.85;;
48925;SDS011;39838;59.938;30.642;2023-07-22T13:08:38;2.72;;;1.83;;
48925;SDS011;39838;59.938;30.642;2023-07-22T13:11:05;7.00;;;2.10;;
48925;SDS011;39838;59.938;30.642;2023-07-22T13:13:33;4.93;;;2.08;;
48925;SDS011;39838;59.938;30.642;2023-07-22T13:16:02;4.63;;;1.90;;
48925;SDS011;39838;59.938;30.642;2023-07-22T13:18:29;3.92;;;2.05;;
48925;SDS011;39838;59.938;30.642;2023-07-22T13:20:57;5.13;;;2.05;;
48925;SDS011;39838;59.938;30.642;2023-07-22T13:23:24;4.55;;;1.88;;
48925;SDS011;39838;59.938;30.642;2023-07-22T13:25:51;4.15;;;2.58;;
48925;SDS011;39838;59.938;30.642;2023-07-22T13:28:18;7.00;;;1.98;;
48925;SDS011;39838;59.938;30.642;2023-07-22T13:30:45;4.20;;;1.80;;
48925;SDS011;39838;59.938;30.642;2023-07-22T13:33:14;3.92;;;2.10;;
48925;SDS011;39838;59.938;30.642;2023-07-22T13:35:42;6.10;;;1.98;;
48925;SDS011;39838;59.938;30.642;2023-07-22T13:38:09;3.85;;;2.00;;
48925;SDS011;39838;59.938;30.642;2023-07-22T13:40:36;5.07;;;2.00;;
48925;SDS011;39838;59.938;30.642;2023-07-22T13:43:04;4.88;;;2.15;;
48925;SDS011;39838;59.938;30.642;2023-07-22T13:45:31;5.70;;;1.80;;
48925;SDS011;39838;59.938;30.642;2023-07-22T13:47:59;5.72;;;2.03;;
48925;SDS011;39838;59.938;30.642;2023-07-22T13:50:27;4.63;;;2.00;;
48925;SDS011;39838;59.938;30.642;2023-07-22T13:52:55;5.47;;;1.80;;
48925;SDS011;39838;59.938;30.642;2023-07-22T13:55:22;6.82;;;2.10;;
48925;SDS011;39838;59.938;30.642;2023-07-22T13:57:49;6.57;;;1.90;;
48925;SDS011;39838;59.938;30.642;2023-07-22T14:00:16;9.93;;;2.22;;
48925;SDS011;39838;59.938;30.642;2023-07-22T14:02:44;8.15;;;2.40;;
48925;SDS011;39838;59.938;30.642;2023-07-22T14:05:11;4.00;;;1.70;;
48925;SDS011;39838;59.938;30.642;2023-07-22T14:07:39;7.20;;;1.90;;
48925;SDS011;39838;59.938;30.642;2023-07-22T14:10:07;7.88;;;2.10;;
48925;SDS011;39838;59.938;30.642;2023-07-22T14:12:34;5.10;;;2.00;;
48925;SDS011;39838;59.938;30.642;2023-07-22T14:15:02;2.03;;;1.73;;
48925;SDS011;39838;59.938;30.642;2023-07-22T14:17:31;6.20;;;1.98;;
48925;SDS011;39838;59.938;30.642;2023-07-22T14:19:58;4.70;;;2.00;;
48925;SDS011;39838;59.938;30.642;2023-07-22T14:22:26;3.08;;;1.70;;
48925;SDS011;39838;59.938;30.642;2023-07-22T14:24:54;8.20;;;2.20;;
48925;SDS011;39838;59.938;30.642;2023-07-22T14:27:21;11.07;;;2.30;;
48925;SDS011;39838;59.938;30.642;2023-07-22T14:29:49;6.22;;;2.38;;
48925;SDS011;39838;59.938;30.642;2023-07-22T14:32:16;5.68;;;2.30;;
48925;SDS011;39838;59.938;30.642;2023-07-22T14:34:43;4.75;;;1.80;;
48925;SDS011;39838;59.938;30.642;2023-07-22T14:37:10;6.35;;;2.15;;
48925;SDS011;39838;59.938;30.642;2023-07-22T14:39:37;4.22;;;1.90;;
48925;SDS011;39838;59.938;30.642;2023-07-22T14:42:06;4.63;;;2.25;;